Bridgeport, Washington
Current Conditions -  °F | °C
As of 12:53 AM on Monday 20 Oct 2014 (Local Time) from KOMK Reporting Station
Clear Clear  
Wind Chill: 44°   Ceiling: Unl
Heat Index: 44°   Visibility: 10mi
Dew Point: 42°   Wind: 0mph
Humidity: 93%   Direction: NA
Pressure: 29.74"   Gusts: NA
Location:  48.01°N, 119.67°W
Report Text: KOMK 200753Z AUTO 00000KT 10SM CLR 07/06 A2974 RMK AO2 SLP073 T00670056 402060067
Loading
Personal Weather Stations






























Interactive Weather Map
Tropical Storm Tracking
New forecast layout! Learn more

10-Day Weather Forecast

Advertisements
Track Severe Weather on mobile